Armington, Montana
Current Conditions -  °F | °C
As of 1:56 AM on Tuesday 21 Oct 2014 (Local Time) from KGFA Reporting Station
Clear Clear  
Wind Chill: 15°   Ceiling: Unl
Heat Index: 15°   Visibility: 10mi
Dew Point:   Wind: 8mph
Humidity: 40%   Direction: 200°SSW
Pressure: 29.69"   Gusts: NA
Location:  47.3298°N, 110.893°W
Report Text: KGFA 210756Z AUTO 20007KT 10SM CLR 15/01 A2969 RMK AO2 SLP034 T01450011
Loading
Personal Weather Stations






























Interactive Weather Map
Tropical Storm Tracking
New forecast layout! Learn more

10-Day Weather Forecast

Advertisements
Track Severe Weather on mobile